Time;durP1;ratioP1;P1;durP2;ratioP2;P2;SDS_P1;SDS_P2;PMS_P1;PMS_P2;Temp;Humidity;BMP_temperature;BMP_pressure;BME280_temperature;BME280_humidity;BME280_pressure;Samples;Min_cycle;Max_cycle;Signal;HPM_P1;HPM_P2
2023/05/20 00:01:13;;;;;;;;;;;16.00;99.90;;;;;;4758279;29;20292;-77
2023/05/20 00:03:40;;;;;;;;;;;16.00;99.90;;;;;;4779444;29;19937;-77
2023/05/20 00:06:07;;;;;;;;;;;16.00;99.90;;;;;;4770102;29;20442;-77
2023/05/20 00:08:35;;;;;;;;;;;16.10;99.90;;;;;;4800876;29;19932;-77
2023/05/20 00:11:02;;;;;;;;;;;16.10;99.90;;;;;;4772066;29;19937;-77
2023/05/20 00:13:29;;;;;;;;;;;15.40;99.90;;;;;;4755674;29;20055;-77
2023/05/20 00:15:56;;;;;;;;;;;16.00;99.90;;;;;;4776542;29;19993;-77
2023/05/20 00:18:23;;;;;;;;;;;16.40;99.90;;;;;;4773267;29;19937;-77
2023/05/20 00:20:52;;;;;;;;;;;16.00;99.90;;;;;;4769216;29;19980;-77
2023/05/20 00:23:19;;;;;;;;;;;16.00;99.90;;;;;;4767980;29;20476;-77
2023/05/20 00:25:46;;;;;;;;;;;16.00;99.90;;;;;;4790201;29;20724;-77
2023/05/20 00:28:13;;;;;;;;;;;16.00;99.90;;;;;;4771420;29;19943;-77
2023/05/20 00:30:40;;;;;;;;;;;16.00;99.90;;;;;;4799853;29;20478;-77
2023/05/20 00:33:08;;;;;;;;;;;16.00;99.90;;;;;;4770602;29;20423;-77
2023/05/20 00:35:35;;;;;;;;;;;15.60;99.90;;;;;;4783735;29;20340;-77
2023/05/20 00:38:02;;;;;;;;;;;15.90;99.90;;;;;;4771768;29;19944;-77
2023/05/20 00:40:29;;;;;;;;;;;15.90;99.90;;;;;;4765363;29;19937;-77
2023/05/20 00:42:56;;;;;;;;;;;15.90;99.90;;;;;;4768864;29;20942;-77
2023/05/20 00:45:24;;;;;;;;;;;15.90;99.90;;;;;;4775417;29;19929;-77
2023/05/20 00:47:51;;;;;;;;;;;15.90;99.90;;;;;;4779885;29;19929;-77
2023/05/20 00:50:19;;;;;;;;;;;15.90;99.90;;;;;;4773655;29;19960;-77
2023/05/20 00:52:47;;;;;;;;;;;15.80;99.90;;;;;;4778289;29;19936;-77
2023/05/20 00:55:14;;;;;;;;;;;15.90;99.90;;;;;;4768941;29;19936;-77
2023/05/20 00:57:42;;;;;;;;;;;15.90;99.90;;;;;;4782493;29;19992;-77
2023/05/20 01:00:09;;;;;;;;;;;15.90;99.90;;;;;;4757033;29;19937;-77
2023/05/20 01:02:37;;;;;;;;;;;16.20;99.90;;;;;;4759434;29;20656;-77
2023/05/20 01:05:04;;;;;;;;;;;15.80;99.90;;;;;;4783667;29;20529;-77
2023/05/20 01:07:31;;;;;;;;;;;15.30;99.90;;;;;;4769357;29;19958;-77
2023/05/20 01:09:59;;;;;;;;;;;15.70;99.90;;;;;;4769954;29;19936;-77
2023/05/20 01:12:29;;;;;;;;;;;15.70;99.90;;;;;;4773321;29;20071;-77
2023/05/20 01:14:59;;;;;;;;;;;16.30;99.90;;;;;;4773658;29;19937;-77
2023/05/20 01:17:29;;;;;;;;;;;15.70;99.90;;;;;;4754952;29;19938;-77
2023/05/20 01:20:02;;;;;;;;;;;15.70;99.90;;;;;;4783346;29;19937;-77
2023/05/20 01:22:30;;;;;;;;;;;17.10;99.90;;;;;;4762084;29;19961;-77
2023/05/20 01:24:57;;;;;;;;;;;15.70;99.90;;;;;;4777862;29;20494;-77
2023/05/20 01:27:25;;;;;;;;;;;15.70;99.90;;;;;;4774727;29;19937;-77
2023/05/20 01:29:53;;;;;;;;;;;15.80;99.90;;;;;;4785387;29;19944;-77
2023/05/20 01:32:20;;;;;;;;;;;15.70;99.90;;;;;;4787302;29;19944;-77
2023/05/20 01:34:51;;;;;;;;;;;15.60;99.90;;;;;;4786826;29;20032;-77
2023/05/20 01:37:20;;;;;;;;;;;15.60;99.90;;;;;;4787894;29;19936;-77
2023/05/20 01:39:48;;;;;;;;;;;15.70;99.90;;;;;;4776954;29;20089;-77
2023/05/20 01:42:16;;;;;;;;;;;16.30;99.90;;;;;;4762495;29;19937;-77
2023/05/20 01:44:43;;;;;;;;;;;15.90;99.90;;;;;;4802661;29;19932;-77
2023/05/20 01:47:10;;;;;;;;;;;15.60;99.90;;;;;;4777949;29;19937;-76
2023/05/20 01:49:37;;;;;;;;;;;15.70;99.90;;;;;;4787719;29;19936;-77
2023/05/20 01:52:05;;;;;;;;;;;15.60;99.90;;;;;;4785875;29;20417;-77
2023/05/20 01:54:33;;;;;;;;;;;15.60;99.90;;;;;;4758957;29;22596;-78
2023/05/20 01:57:00;;;;;;;;;;;15.60;99.90;;;;;;4770692;29;19968;-77
2023/05/20 01:59:27;;;;;;;;;;;15.60;99.90;;;;;;4760858;29;22581;-77
2023/05/20 02:01:54;;;;;;;;;;;15.60;99.90;;;;;;4770658;29;19951;-77
2023/05/20 02:04:22;;;;;;;;;;;15.60;99.90;;;;;;4782954;29;19929;-77
2023/05/20 02:06:49;;;;;;;;;;;15.80;99.90;;;;;;4772195;29;19948;-77
2023/05/20 02:09:17;;;;;;;;;;;15.40;99.90;;;;;;4771301;29;19960;-77
2023/05/20 02:11:44;;;;;;;;;;;15.70;99.90;;;;;;4773401;29;20454;-77
2023/05/20 02:14:11;;;;;;;;;;;15.60;99.90;;;;;;4758888;29;20074;-77
2023/05/20 02:16:38;;;;;;;;;;;16.00;99.90;;;;;;4784940;29;19960;-77
2023/05/20 02:19:11;;;;;;;;;;;15.60;99.90;;;;;;4812061;29;19929;-77
2023/05/20 02:21:42;;;;;;;;;;;14.90;99.90;;;;;;4775356;29;19937;-77
2023/05/20 02:24:10;;;;;;;;;;;15.60;99.90;;;;;;4765922;29;19944;-77
2023/05/20 02:26:37;;;;;;;;;;;15.60;99.90;;;;;;4758848;29;19937;-77
2023/05/20 02:29:04;;;;;;;;;;;15.60;99.90;;;;;;4784931;29;20210;-77
2023/05/20 02:31:31;;;;;;;;;;;15.60;99.90;;;;;;4776898;29;20641;-77
2023/05/20 02:34:03;;;;;;;;;;;15.60;99.90;;;;;;4783600;29;22218;-77
2023/05/20 02:36:31;;;;;;;;;;;15.60;99.90;;;;;;4769994;29;20523;-77
2023/05/20 02:39:00;;;;;;;;;;;15.50;99.90;;;;;;4767506;29;19992;-77
2023/05/20 02:41:27;;;;;;;;;;;15.50;99.90;;;;;;4790829;29;19936;-77
2023/05/20 02:43:54;;;;;;;;;;;15.50;99.90;;;;;;4788222;29;20409;-77
2023/05/20 02:46:21;;;;;;;;;;;15.40;99.90;;;;;;4788187;29;19933;-77
2023/05/20 02:48:49;;;;;;;;;;;15.40;99.90;;;;;;4812725;29;19936;-77
2023/05/20 02:51:16;;;;;;;;;;;15.40;99.90;;;;;;4762427;29;19998;-77
2023/05/20 02:53:43;;;;;;;;;;;15.30;99.90;;;;;;4775746;29;19967;-78
2023/05/20 02:56:12;;;;;;;;;;;15.30;99.90;;;;;;4764583;29;19937;-77
2023/05/20 02:58:39;;;;;;;;;;;15.30;99.90;;;;;;4787843;29;19937;-77
2023/05/20 03:01:06;;;;;;;;;;;16.50;99.90;;;;;;4776066;29;20313;-77
2023/05/20 03:03:34;;;;;;;;;;;15.20;99.90;;;;;;4760632;29;20617;-77
2023/05/20 03:06:03;;;;;;;;;;;15.30;99.90;;;;;;4781269;29;19937;-78
2023/05/20 03:08:32;;;;;;;;;;;15.10;99.90;;;;;;4765244;29;19983;-77
2023/05/20 03:11:03;;;;;;;;;;;15.40;99.90;;;;;;4787477;29;19937;-77
2023/05/20 03:13:33;;;;;;;;;;;15.20;99.90;;;;;;4771906;29;19944;-78
2023/05/20 03:16:01;;;;;;;;;;;15.10;99.90;;;;;;4797864;29;20307;-77
2023/05/20 03:18:28;;;;;;;;;;;14.70;99.90;;;;;;4788814;29;19937;-78
2023/05/20 03:20:56;;;;;;;;;;;15.20;99.90;;;;;;4772860;29;19943;-78
2023/05/20 03:23:23;;;;;;;;;;;15.20;99.90;;;;;;4763183;29;20417;-77
2023/05/20 03:25:51;;;;;;;;;;;15.10;99.90;;;;;;4778168;29;20380;-77
2023/05/20 03:28:18;;;;;;;;;;;15.20;99.90;;;;;;4796104;29;19937;-77
2023/05/20 03:30:46;;;;;;;;;;;15.10;99.90;;;;;;4775391;29;20365;-77
2023/05/20 03:33:15;;;;;;;;;;;15.10;99.90;;;;;;4785262;29;19932;-77
2023/05/20 03:35:42;;;;;;;;;;;15.00;99.90;;;;;;4771841;29;19932;-77
2023/05/20 03:38:10;;;;;;;;;;;15.10;99.90;;;;;;4783079;29;20052;-77
2023/05/20 03:40:38;;;;;;;;;;;15.00;99.90;;;;;;4760996;29;19944;-77
2023/05/20 03:43:06;;;;;;;;;;;15.00;99.90;;;;;;4797355;29;19997;-77
2023/05/20 03:45:33;;;;;;;;;;;15.00;99.90;;;;;;4777999;29;20078;-77
2023/05/20 03:48:05;;;;;;;;;;;15.00;99.90;;;;;;4786220;29;19937;-76
2023/05/20 03:50:34;;;;;;;;;;;15.00;99.90;;;;;;4770004;29;20418;-76
2023/05/20 03:53:05;;;;;;;;;;;15.10;99.90;;;;;;4785848;29;19937;-77
2023/05/20 03:55:38;;;;;;;;;;;14.00;99.90;;;;;;4776611;29;20421;-77
2023/05/20 03:58:05;;;;;;;;;;;15.20;99.90;;;;;;4761163;29;20023;-76
2023/05/20 04:00:32;;;;;;;;;;;15.10;99.90;;;;;;4774417;29;19978;-77
2023/05/20 04:03:00;;;;;;;;;;;15.10;99.90;;;;;;4791654;29;19976;-77
2023/05/20 04:05:28;;;;;;;;;;;14.60;99.90;;;;;;4776311;29;19929;-78
2023/05/20 04:07:56;;;;;;;;;;;15.10;99.90;;;;;;4762561;29;19940;-76
2023/05/20 04:10:24;;;;;;;;;;;15.20;99.90;;;;;;4803238;29;19935;-77
2023/05/20 04:12:52;;;;;;;;;;;15.20;99.90;;;;;;4770650;29;20458;-77
2023/05/20 04:15:22;;;;;;;;;;;15.20;99.90;;;;;;4778663;29;19991;-78
2023/05/20 04:17:54;;;;;;;;;;;15.00;99.90;;;;;;4785656;29;19937;-77
2023/05/20 04:20:23;;;;;;;;;;;15.30;99.90;;;;;;4784626;29;20416;-77
2023/05/20 04:22:54;;;;;;;;;;;15.30;99.90;;;;;;4770563;29;20444;-78
2023/05/20 04:25:21;;;;;;;;;;;15.40;99.90;;;;;;4755635;29;19934;-77
2023/05/20 04:27:49;;;;;;;;;;;15.40;99.90;;;;;;4784749;29;20439;-77
2023/05/20 04:30:17;;;;;;;;;;;15.50;99.90;;;;;;4773050;29;22171;-78
2023/05/20 04:32:44;;;;;;;;;;;15.60;99.90;;;;;;4762960;29;20333;-76
2023/05/20 04:35:12;;;;;;;;;;;16.00;99.90;;;;;;4774482;29;22359;-77
2023/05/20 04:37:50;;;;;;;;;;;15.60;99.90;;;;;;4789874;29;19936;-76
2023/05/20 04:40:18;;;;;;;;;;;15.70;99.90;;;;;;4769247;29;22255;-76
2023/05/20 04:42:45;;;;;;;;;;;15.70;99.90;;;;;;4791009;29;19937;-76
2023/05/20 04:45:12;;;;;;;;;;;15.80;99.90;;;;;;4781552;29;19937;-76
2023/05/20 04:47:41;;;;;;;;;;;15.80;99.90;;;;;;4794310;29;19948;-76
2023/05/20 04:50:15;;;;;;;;;;;15.90;99.90;;;;;;4766116;29;20401;-77
2023/05/20 04:52:44;;;;;;;;;;;15.60;99.90;;;;;;4761944;29;22308;-77
2023/05/20 04:55:11;;;;;;;;;;;16.00;99.90;;;;;;4774341;29;19943;-76
2023/05/20 04:57:40;;;;;;;;;;;16.10;99.90;;;;;;4788742;29;20400;-76
2023/05/20 05:00:09;;;;;;;;;;;16.70;99.90;;;;;;4777262;29;19937;-76
2023/05/20 05:02:37;;;;;;;;;;;16.20;99.90;;;;;;4788515;29;20041;-76
2023/05/20 05:05:04;;;;;;;;;;;16.30;99.90;;;;;;4780811;29;20389;-77
2023/05/20 05:07:31;;;;;;;;;;;16.30;99.90;;;;;;4760310;29;22580;-77
2023/05/20 05:09:58;;;;;;;;;;;16.40;99.90;;;;;;4783207;29;19988;-77
2023/05/20 05:12:28;;;;;;;;;;;16.60;99.90;;;;;;4782733;29;20717;-77
2023/05/20 05:14:57;;;;;;;;;;;16.70;99.90;;;;;;4785450;29;19936;-76
2023/05/20 05:17:25;;;;;;;;;;;16.70;99.90;;;;;;4780199;29;19936;-76
2023/05/20 05:19:52;;;;;;;;;;;16.90;99.90;;;;;;4775666;29;20424;-77
2023/05/20 05:22:20;;;;;;;;;;;17.00;99.90;;;;;;4780328;29;20364;-77
2023/05/20 05:24:48;;;;;;;;;;;17.10;99.90;;;;;;4775338;29;19937;-76
2023/05/20 05:27:15;;;;;;;;;;;17.20;99.90;;;;;;4777564;29;20480;-77
2023/05/20 05:29:43;;;;;;;;;;;17.20;99.90;;;;;;4793789;29;19937;-76
2023/05/20 05:32:10;;;;;;;;;;;17.30;99.90;;;;;;4783645;29;19936;-77
2023/05/20 05:34:37;;;;;;;;;;;17.50;99.90;;;;;;4769184;29;19936;-76
2023/05/20 05:37:04;;;;;;;;;;;17.50;99.80;;;;;;4791849;29;20027;-76
2023/05/20 05:39:33;;;;;;;;;;;17.40;99.60;;;;;;4774590;29;19936;-77
2023/05/20 05:42:03;;;;;;;;;;;17.60;99.90;;;;;;4788972;29;19937;-76
2023/05/20 05:44:30;;;;;;;;;;;17.00;99.30;;;;;;4796385;29;20036;-76
2023/05/20 05:46:57;;;;;;;;;;;17.90;99.60;;;;;;4783891;29;20027;-77
2023/05/20 05:49:27;;;;;;;;;;;17.90;99.00;;;;;;4782359;29;20325;-77
2023/05/20 05:51:54;;;;;;;;;;;18.10;99.10;;;;;;4778978;29;19943;-77
2023/05/20 05:54:22;;;;;;;;;;;18.10;97.70;;;;;;4777573;29;20017;-77
2023/05/20 05:56:50;;;;;;;;;;;18.20;98.30;;;;;;4784169;29;19943;-77
2023/05/20 05:59:18;;;;;;;;;;;18.30;97.80;;;;;;4801769;29;20014;-76
2023/05/20 06:01:45;;;;;;;;;;;18.30;97.60;;;;;;4794903;29;19932;-76
2023/05/20 06:04:13;;;;;;;;;;;18.40;97.10;;;;;;4767407;29;19995;-77
2023/05/20 06:06:40;;;;;;;;;;;18.50;96.90;;;;;;4784342;29;19941;-77
2023/05/20 06:09:07;;;;;;;;;;;18.60;96.90;;;;;;4776979;29;20705;-77
2023/05/20 06:11:35;;;;;;;;;;;18.60;96.50;;;;;;4795850;29;19944;-77
2023/05/20 06:14:02;;;;;;;;;;;18.70;95.80;;;;;;4788361;29;20457;-76
2023/05/20 06:16:30;;;;;;;;;;;18.70;95.80;;;;;;4772643;29;19944;-77
2023/05/20 06:18:58;;;;;;;;;;;18.80;95.20;;;;;;4777981;29;20032;-77
2023/05/20 06:21:31;;;;;;;;;;;18.90;96.10;;;;;;4804052;29;19933;-77
2023/05/20 06:23:58;;;;;;;;;;;19.00;95.30;;;;;;4785184;29;20007;-77
2023/05/20 06:26:26;;;;;;;;;;;19.10;95.00;;;;;;4764301;29;19937;-79
2023/05/20 06:28:53;;;;;;;;;;;19.20;95.70;;;;;;4785535;29;20397;-77
2023/05/20 06:31:21;;;;;;;;;;;19.20;94.80;;;;;;4779633;29;19929;-77
2023/05/20 06:33:49;;;;;;;;;;;19.40;95.00;;;;;;4787871;29;19936;-77
2023/05/20 06:36:16;;;;;;;;;;;19.50;95.30;;;;;;4774492;29;20453;-76
2023/05/20 06:38:43;;;;;;;;;;;19.40;94.40;;;;;;4789329;29;20621;-77
2023/05/20 06:41:13;;;;;;;;;;;19.40;94.00;;;;;;4793068;29;19937;-77
2023/05/20 06:43:40;;;;;;;;;;;19.40;94.00;;;;;;4791501;29;22314;-77
2023/05/20 06:46:27;;;;;;;;;;;19.40;93.80;;;;;;4787908;29;20015;-76
2023/05/20 06:49:00;;;;;;;;;;;19.50;93.40;;;;;;4775421;29;19937;-77
2023/05/20 06:51:28;;;;;;;;;;;19.60;93.60;;;;;;4764915;29;19936;-76
2023/05/20 06:53:55;;;;;;;;;;;19.60;93.70;;;;;;4772414;29;19936;-77
2023/05/20 06:56:22;;;;;;;;;;;19.70;93.40;;;;;;4781636;29;20429;-78
2023/05/20 06:58:49;;;;;;;;;;;19.80;93.20;;;;;;4804745;29;19964;-77
2023/05/20 07:01:16;;;;;;;;;;;19.90;94.00;;;;;;4774033;29;20448;-77
2023/05/20 07:03:45;;;;;;;;;;;20.30;93.30;;;;;;4785022;29;19948;-77
2023/05/20 07:06:13;;;;;;;;;;;20.30;93.40;;;;;;4803221;29;19949;-78
2023/05/20 07:08:40;;;;;;;;;;;20.00;92.50;;;;;;4792656;29;19964;-76
2023/05/20 07:11:08;;;;;;;;;;;20.00;92.20;;;;;;4765290;29;19941;-76
2023/05/20 07:13:35;;;;;;;;;;;20.00;92.40;;;;;;4799216;29;22243;-77
2023/05/20 07:16:02;;;;;;;;;;;20.20;93.00;;;;;;4764212;29;20373;-77
2023/05/20 07:18:29;;;;;;;;;;;20.20;92.50;;;;;;4782654;29;20097;-77
2023/05/20 07:20:57;;;;;;;;;;;20.30;92.50;;;;;;4775531;29;19977;-77
2023/05/20 07:23:45;;;;;;;;;;;20.40;92.40;;;;;;4789405;29;19936;-77
2023/05/20 07:26:12;;;;;;;;;;;20.40;92.30;;;;;;4783392;29;20401;-76
2023/05/20 07:28:39;;;;;;;;;;;20.40;92.20;;;;;;4787315;29;20293;-78
2023/05/20 07:31:07;;;;;;;;;;;20.60;92.90;;;;;;4788234;29;19937;-76
2023/05/20 07:33:40;;;;;;;;;;;20.70;92.50;;;;;;4775305;29;19937;-77
2023/05/20 07:36:08;;;;;;;;;;;21.10;92.10;;;;;;4779326;29;23055;-77
2023/05/20 07:38:40;;;;;;;;;;;20.60;92.20;;;;;;4763178;29;19936;-75
2023/05/20 07:41:17;;;;;;;;;;;20.70;91.60;;;;;;4781533;29;19944;-77
2023/05/20 07:43:44;;;;;;;;;;;20.80;91.90;;;;;;4772063;29;20034;-76
2023/05/20 07:46:12;;;;;;;;;;;20.80;92.00;;;;;;4788681;29;19937;-76
2023/05/20 07:48:39;;;;;;;;;;;20.80;91.80;;;;;;4773418;29;20310;-76
2023/05/20 07:51:06;;;;;;;;;;;20.90;91.80;;;;;;4789337;29;19958;-77
2023/05/20 07:53:33;;;;;;;;;;;20.90;91.60;;;;;;4774405;29;19937;-76
2023/05/20 07:56:00;;;;;;;;;;;20.90;91.80;;;;;;4772591;29;19943;-76
2023/05/20 07:58:30;;;;;;;;;;;21.00;91.50;;;;;;4780421;29;22288;-78
2023/05/20 08:00:57;;;;;;;;;;;21.10;91.40;;;;;;4787583;29;19937;-77
2023/05/20 08:03:25;;;;;;;;;;;21.00;91.40;;;;;;4774510;29;20040;-76
2023/05/20 08:06:04;;;;;;;;;;;21.10;91.70;;;;;;4782810;29;22536;-77
2023/05/20 08:08:32;;;;;;;;;;;21.10;91.80;;;;;;4776413;29;19936;-77
2023/05/20 08:11:06;;;;;;;;;;;21.10;91.40;;;;;;4777705;29;19987;-77
2023/05/20 08:13:33;;;;;;;;;;;21.30;91.90;;;;;;4763279;29;19936;-76
2023/05/20 08:16:02;;;;;;;;;;;21.20;91.10;;;;;;4789217;29;19936;-77
2023/05/20 08:18:31;;;;;;;;;;;20.80;90.80;;;;;;4762705;29;19987;-76
2023/05/20 08:20:58;;;;;;;;;;;21.40;92.00;;;;;;4774779;29;19944;-76
2023/05/20 08:23:26;;;;;;;;;;;21.30;91.10;;;;;;4765244;29;19976;-76
2023/05/20 08:25:53;;;;;;;;;;;21.40;91.10;;;;;;4781141;29;20425;-77
2023/05/20 08:28:22;;;;;;;;;;;21.50;90.80;;;;;;4774187;29;19944;-77
2023/05/20 08:30:50;;;;;;;;;;;21.50;90.90;;;;;;4776605;29;19944;-77
2023/05/20 08:33:18;;;;;;;;;;;21.60;91.40;;;;;;4778406;29;19937;-76
2023/05/20 08:35:45;;;;;;;;;;;21.60;92.20;;;;;;4775290;29;19936;-77
2023/05/20 08:38:13;;;;;;;;;;;21.70;91.30;;;;;;4792525;29;19937;-76
2023/05/20 08:40:40;;;;;;;;;;;21.80;90.90;;;;;;4777895;29;19943;-76
2023/05/20 08:43:08;;;;;;;;;;;21.80;91.30;;;;;;4785457;29;20009;-76
2023/05/20 08:45:37;;;;;;;;;;;21.60;90.40;;;;;;4788417;29;20385;-77
2023/05/20 08:48:09;;;;;;;;;;;21.80;90.90;;;;;;4765009;29;19940;-77
2023/05/20 08:50:37;;;;;;;;;;;21.80;90.40;;;;;;4789009;29;20016;-77
2023/05/20 08:53:05;;;;;;;;;;;21.90;90.60;;;;;;4777964;29;19936;-77
2023/05/20 08:55:37;;;;;;;;;;;21.90;90.20;;;;;;4771681;29;19944;-76
2023/05/20 08:58:04;;;;;;;;;;;21.90;89.60;;;;;;4772751;29;19941;-77
2023/05/20 09:00:31;;;;;;;;;;;22.00;91.00;;;;;;4762775;29;19993;-76
2023/05/20 09:02:59;;;;;;;;;;;22.10;89.20;;;;;;4786105;29;19978;-78
2023/05/20 09:05:27;;;;;;;;;;;22.10;89.50;;;;;;4797138;29;21093;-76
2023/05/20 09:08:07;;;;;;;;;;;22.10;88.70;;;;;;4789892;29;19933;-76
2023/05/20 09:10:35;;;;;;;;;;;22.10;88.70;;;;;;4775840;29;19937;-77
2023/05/20 09:13:04;;;;;;;;;;;22.10;88.50;;;;;;4795855;29;20068;-77
2023/05/20 09:15:31;;;;;;;;;;;22.20;90.20;;;;;;4788735;29;19929;-76
2023/05/20 09:18:01;;;;;;;;;;;21.20;88.20;;;;;;4763711;29;19944;-77
2023/05/20 09:20:29;;;;;;;;;;;22.30;89.00;;;;;;4780198;29;19938;-76
2023/05/20 09:23:03;;;;;;;;;;;22.40;90.40;;;;;;4778255;29;19937;-77
2023/05/20 09:25:31;;;;;;;;;;;22.50;88.70;;;;;;4802922;29;19968;-76
2023/05/20 09:27:59;;;;;;;;;;;22.50;89.30;;;;;;4792497;29;22477;-76
2023/05/20 09:30:26;;;;;;;;;;;22.40;87.50;;;;;;4773798;29;20024;-77
2023/05/20 09:32:56;;;;;;;;;;;22.70;86.40;;;;;;4775217;29;19936;-77
2023/05/20 09:35:24;;;;;;;;;;;22.80;85.00;;;;;;4776975;29;19940;-78
2023/05/20 09:37:53;;;;;;;;;;;22.20;85.10;;;;;;4776952;29;19936;-77
2023/05/20 09:40:25;;;;;;;;;;;22.50;86.30;;;;;;4763938;29;19929;-79
2023/05/20 09:42:55;;;;;;;;;;;22.60;88.10;;;;;;4796420;29;20408;-76
2023/05/20 09:45:23;;;;;;;;;;;22.70;84.50;;;;;;4766972;29;19929;-77
2023/05/20 09:47:51;;;;;;;;;;;22.70;84.90;;;;;;4792194;29;20017;-78
2023/05/20 09:50:20;;;;;;;;;;;22.80;85.90;;;;;;4772517;29;19937;-76
2023/05/20 09:52:48;;;;;;;;;;;23.00;85.00;;;;;;4800734;29;19932;-76
2023/05/20 09:55:20;;;;;;;;;;;22.90;85.70;;;;;;4799306;29;19944;-76
2023/05/20 09:57:48;;;;;;;;;;;22.80;86.40;;;;;;4788112;29;23001;-77
2023/05/20 10:00:18;;;;;;;;;;;22.80;84.70;;;;;;4803352;29;19937;-78
2023/05/20 10:02:47;;;;;;;;;;;22.90;84.80;;;;;;4814062;29;19979;-76
2023/05/20 10:05:19;;;;;;;;;;;23.00;85.50;;;;;;4791838;29;19944;-77
2023/05/20 10:08:12;;;;;;;;;;;23.10;82.20;;;;;;4790043;29;20039;-76
2023/05/20 10:10:47;;;;;;;;;;;23.10;80.20;;;;;;4785583;29;19932;-77
2023/05/20 10:13:33;;;;;;;;;;;23.30;82.40;;;;;;4786594;29;20424;-77
2023/05/20 10:16:22;;;;;;;;;;;23.20;80.50;;;;;;4775769;29;20389;-77
2023/05/20 10:18:59;;;;;;;;;;;23.10;80.80;;;;;;4807111;29;20405;-76
2023/05/20 10:21:27;;;;;;;;;;;23.00;80.90;;;;;;4780375;29;19936;-76
2023/05/20 10:24:04;;;;;;;;;;;23.30;84.00;;;;;;4793540;29;19968;-76
2023/05/20 10:26:37;;;;;;;;;;;23.20;80.00;;;;;;4780438;29;19928;-76
2023/05/20 10:29:17;;;;;;;;;;;23.40;80.50;;;;;;4762994;29;19937;-77
2023/05/20 10:31:48;;;;;;;;;;;23.50;80.60;;;;;;4775333;29;20440;-76
2023/05/20 10:34:16;;;;;;;;;;;23.40;80.20;;;;;;4793756;29;19936;-79
2023/05/20 10:36:44;;;;;;;;;;;23.50;77.00;;;;;;4798300;29;19933;-77
2023/05/20 10:39:18;;;;;;;;;;;23.50;77.10;;;;;;4781933;29;19936;-76
2023/05/20 10:41:45;;;;;;;;;;;23.60;79.40;;;;;;4789148;29;20030;-76
2023/05/20 10:44:12;;;;;;;;;;;23.70;79.00;;;;;;4774142;29;22530;-77
2023/05/20 10:46:40;;;;;;;;;;;23.60;75.70;;;;;;4771951;29;19960;-77
2023/05/20 10:49:32;;;;;;;;;;;23.60;75.00;;;;;;4783989;29;19943;-77
2023/05/20 10:51:59;;;;;;;;;;;23.60;77.10;;;;;;4784678;29;19936;-77
2023/05/20 10:54:28;;;;;;;;;;;23.70;74.00;;;;;;4786041;29;20452;-76
2023/05/20 10:56:56;;;;;;;;;;;23.60;74.20;;;;;;4771370;29;19937;-76
2023/05/20 10:59:23;;;;;;;;;;;23.50;75.80;;;;;;4774176;29;19933;-77
2023/05/20 11:01:50;;;;;;;;;;;24.20;75.10;;;;;;4803438;29;19984;-76
2023/05/20 11:04:19;;;;;;;;;;;23.60;74.10;;;;;;4773424;29;20247;-76
2023/05/20 11:06:52;;;;;;;;;;;23.70;74.10;;;;;;4777443;29;19937;-78
2023/05/20 11:09:20;;;;;;;;;;;23.80;75.30;;;;;;4789113;29;20377;-76
2023/05/20 11:11:49;;;;;;;;;;;23.80;74.60;;;;;;4789645;29;19937;-76
2023/05/20 11:14:19;;;;;;;;;;;24.60;74.30;;;;;;4787622;29;19946;-77
2023/05/20 11:16:50;;;;;;;;;;;23.80;73.20;;;;;;4801368;29;20585;-77
2023/05/20 11:19:20;;;;;;;;;;;23.70;74.10;;;;;;4791687;29;20571;-77
2023/05/20 11:21:48;;;;;;;;;;;23.80;75.50;;;;;;4789096;29;19937;-76
2023/05/20 11:24:22;;;;;;;;;;;23.80;75.40;;;;;;4773090;29;19943;-77
2023/05/20 11:26:49;;;;;;;;;;;23.70;76.10;;;;;;4786792;29;19944;-76
2023/05/20 11:29:16;;;;;;;;;;;23.90;76.80;;;;;;4771929;29;20066;-78
2023/05/20 11:31:44;;;;;;;;;;;24.00;74.40;;;;;;4775177;29;20013;-78
2023/05/20 11:34:11;;;;;;;;;;;24.10;71.80;;;;;;4784956;29;19985;-76
2023/05/20 11:36:42;;;;;;;;;;;24.10;74.80;;;;;;4793927;29;19937;-76
2023/05/20 11:39:10;;;;;;;;;;;24.00;75.20;;;;;;4770754;29;19976;-77
2023/05/20 11:41:37;;;;;;;;;;;24.10;73.20;;;;;;4787810;29;20425;-76
2023/05/20 11:44:08;;;;;;;;;;;24.00;73.50;;;;;;4785529;29;19944;-77
2023/05/20 11:46:40;;;;;;;;;;;24.00;74.90;;;;;;4780392;29;20303;-78
2023/05/20 11:49:07;;;;;;;;;;;24.00;73.30;;;;;;4768690;29;19944;-76
2023/05/20 11:51:34;;;;;;;;;;;24.00;73.90;;;;;;4776944;29;19955;-77
2023/05/20 11:54:02;;;;;;;;;;;24.00;74.50;;;;;;4786383;29;20052;-77
2023/05/20 11:56:30;;;;;;;;;;;24.00;71.90;;;;;;4785865;29;19937;-77
2023/05/20 11:58:58;;;;;;;;;;;24.00;73.90;;;;;;4803898;29;19937;-77
2023/05/20 12:01:26;;;;;;;;;;;24.10;76.00;;;;;;4772203;29;20077;-78
2023/05/20 12:03:54;;;;;;;;;;;24.20;74.40;;;;;;4759082;29;19944;-76
2023/05/20 12:06:21;;;;;;;;;;;24.20;74.10;;;;;;4807432;29;19929;-77
2023/05/20 12:08:48;;;;;;;;;;;24.10;73.90;;;;;;4781999;29;19981;-77
2023/05/20 12:11:15;;;;;;;;;;;24.10;73.10;;;;;;4777862;29;19943;-76
2023/05/20 12:13:43;;;;;;;;;;;24.10;73.90;;;;;;4796407;29;20373;-76
2023/05/20 12:16:10;;;;;;;;;;;24.20;72.10;;;;;;4804125;29;19929;-77
2023/05/20 12:18:37;;;;;;;;;;;24.20;73.70;;;;;;4779785;29;20126;-76
2023/05/20 12:21:04;;;;;;;;;;;24.30;74.70;;;;;;4774509;29;20369;-76
2023/05/20 12:23:33;;;;;;;;;;;24.30;74.20;;;;;;4780405;29;20172;-78
2023/05/20 12:26:00;;;;;;;;;;;24.10;72.30;;;;;;4791040;29;19937;-78
2023/05/20 12:28:27;;;;;;;;;;;24.10;72.50;;;;;;4774574;29;20317;-78
2023/05/20 12:30:54;;;;;;;;;;;24.20;74.30;;;;;;4779880;29;20692;-78
2023/05/20 12:33:21;;;;;;;;;;;24.20;74.80;;;;;;4790169;29;20296;-76
2023/05/20 12:35:48;;;;;;;;;;;23.50;74.20;;;;;;4773344;29;19937;-77
2023/05/20 12:38:15;;;;;;;;;;;24.30;75.20;;;;;;4796090;29;20397;-78
2023/05/20 12:40:45;;;;;;;;;;;24.30;74.00;;;;;;4790510;29;19937;-78
2023/05/20 12:43:12;;;;;;;;;;;24.20;73.00;;;;;;4786003;29;20057;-77
2023/05/20 12:45:40;;;;;;;;;;;24.30;74.60;;;;;;4789019;29;19988;-77
2023/05/20 12:48:07;;;;;;;;;;;24.10;74.50;;;;;;4802914;29;19936;-76
2023/05/20 12:50:34;;;;;;;;;;;24.30;74.70;;;;;;4780429;29;20087;-77
2023/05/20 12:53:01;;;;;;;;;;;24.30;73.80;;;;;;4772961;29;19944;-78
2023/05/20 12:55:29;;;;;;;;;;;24.30;73.60;;;;;;4781638;29;20389;-77
2023/05/20 12:57:56;;;;;;;;;;;24.30;71.80;;;;;;4783865;29;20290;-77
2023/05/20 13:00:23;;;;;;;;;;;24.30;70.80;;;;;;4775442;29;20087;-77
2023/05/20 13:02:51;;;;;;;;;;;24.20;71.40;;;;;;4792076;29;19937;-76
2023/05/20 13:05:18;;;;;;;;;;;24.30;73.20;;;;;;4799410;29;19948;-77
2023/05/20 13:07:45;;;;;;;;;;;24.40;73.10;;;;;;4778693;29;20460;-76
2023/05/20 13:10:12;;;;;;;;;;;24.40;73.20;;;;;;4778049;29;20836;-76
2023/05/20 13:12:44;;;;;;;;;;;24.40;74.30;;;;;;4785920;29;20421;-77
2023/05/20 13:15:13;;;;;;;;;;;24.30;73.20;;;;;;4802869;29;19943;-77
2023/05/20 13:17:41;;;;;;;;;;;24.50;73.40;;;;;;4785734;29;20409;-78
2023/05/20 13:20:09;;;;;;;;;;;24.60;73.30;;;;;;4784469;29;19938;-77
2023/05/20 13:22:36;;;;;;;;;;;24.60;73.50;;;;;;4773547;29;20000;-77
2023/05/20 13:25:04;;;;;;;;;;;24.50;74.00;;;;;;4807279;29;22159;-77
2023/05/20 13:27:31;;;;;;;;;;;24.50;72.50;;;;;;4794971;29;19946;-77
2023/05/20 13:30:00;;;;;;;;;;;24.60;73.60;;;;;;4798584;29;19936;-77
2023/05/20 13:32:27;;;;;;;;;;;24.60;74.00;;;;;;4761447;29;19937;-77
2023/05/20 13:34:55;;;;;;;;;;;24.60;73.30;;;;;;4767643;29;20461;-76
2023/05/20 13:37:22;;;;;;;;;;;24.60;73.60;;;;;;4772211;29;20401;-76
2023/05/20 13:39:50;;;;;;;;;;;24.50;74.40;;;;;;4779510;29;20579;-77
2023/05/20 13:42:17;;;;;;;;;;;24.50;73.40;;;;;;4778643;29;19936;-77
2023/05/20 13:44:45;;;;;;;;;;;24.60;70.60;;;;;;4776049;29;19937;-76
2023/05/20 13:47:12;;;;;;;;;;;24.50;68.30;;;;;;4779741;29;20613;-77
2023/05/20 13:49:39;;;;;;;;;;;24.60;69.30;;;;;;4776019;29;20544;-77
2023/05/20 13:52:06;;;;;;;;;;;24.60;71.60;;;;;;4764201;29;19937;-78
2023/05/20 13:54:33;;;;;;;;;;;24.60;70.90;;;;;;4773171;29;20408;-77
2023/05/20 13:57:01;;;;;;;;;;;24.50;68.30;;;;;;4801929;29;20187;-78
2023/05/20 13:59:28;;;;;;;;;;;24.50;69.70;;;;;;4779643;29;20670;-78
2023/05/20 14:01:55;;;;;;;;;;;24.50;70.90;;;;;;4772411;29;20384;-77
2023/05/20 14:04:24;;;;;;;;;;;24.60;72.10;;;;;;4788535;29;19929;-77
2023/05/20 14:06:51;;;;;;;;;;;24.60;70.80;;;;;;4777164;29;20005;-76
2023/05/20 14:09:18;;;;;;;;;;;24.60;66.70;;;;;;4788052;29;21997;-76
2023/05/20 14:11:45;;;;;;;;;;;24.60;68.50;;;;;;4775154;29;20190;-77
2023/05/20 14:14:12;;;;;;;;;;;24.60;68.50;;;;;;4788797;29;20019;-76
2023/05/20 14:16:39;;;;;;;;;;;24.60;68.00;;;;;;4783500;29;19944;-76
2023/05/20 14:19:06;;;;;;;;;;;24.50;70.10;;;;;;4789763;29;19937;-77
2023/05/20 14:21:35;;;;;;;;;;;24.50;68.70;;;;;;4797586;29;19976;-78
2023/05/20 14:24:02;;;;;;;;;;;24.60;67.40;;;;;;4778637;29;19944;-77